Tiempo atmosférico en la estación meteorológica de Hijar, Teruel (300 m.)



Fecha
DESCASC
Temp. máxima en grados centígrados (hora)
DESCASC
Temp. mínima en grados centígrados (hora)
DESCASC
Temp. media en grados centígrados
DESCASC
Racha de viento máxima en m/sg (hora)
DESCASC
Velocidad máxima media en intervalos de 10 minutos(hora)
DESCASC
Precipitaciones diarias en mm
DESCASC
Precipitaciones de 00:00 a 06:00 en mm
DESCASC
Precipitaciones de 06:00 a 12:00 en mm
DESCASC
Precipitaciones de 12:00 a 18:00 en mm
DESCASC
Precipitaciones de 18:00 a 24:00 en mm
DESCASC
11-12-2019 13.8 (11:10) 5.2 (07:50) 9.5 13.33 (22:50) 9.17 (23:40) 0 0 0 0 0
08-12-2019 12 (22:20) 0.2 (00:00) 6.1 10.83 (22:00) 6.11 (23:30) 0.8 0 0 0 0.8
07-12-2019 11.5 (14:10) 2.5 (00:00) 7 3.33 (14:20) 2.22 (00:20) 0 0 0 0 0
06-12-2019 13.7 (14:30) 6.5 (00:00) 10.1 4.44 (01:20) 3.06 (01:20) 0.2 0 0 0.2 0
05-12-2019 9.8 (13:10) 7.4 (00:00) 8.6 5 (15:00) 3.61 (18:00) 4.2 1.8 1.2 1 0.2
04-12-2019 8.1 (23:50) 5.5 (00:20) 6.8 3.61 (18:10) 1.67 (22:20) 8.6 0 0.8 5.8 2
03-12-2019 9.5 (15:20) 2.9 (00:00) 6.2 6.11 (00:20) 3.61 (00:50) 0.2 0 0 0 0.2
02-12-2019 14.7 (14:40) 5.1 (00:00) 9.9 7.22 (19:50) 3.89 (19:00) 0 0 0 0 0
01-12-2019 15.3 (15:00) 6.1 (00:00) 10.7 8.89 (00:30) 5.83 (00:30) 0.8 0.8 0 0 0
30-11-2019 18.3 (15:00) 6.2 (00:00) 12.2 11.94 (21:20) 4.17 (21:20) 1.2 0 0 0 1.2
29-11-2019 19.8 (14:00) 9.9 (00:00) 14.8 8.89 (05:20) 6.11 (03:10) 0 0 0 0 0
28-11-2019 20.8 (13:40) 9.4 (04:20) 15.1 13.61 (14:40) 8.89 (20:00) 0.2 0 0 0 0.2
27-11-2019 20 (14:50) 11.5 (00:00) 15.8 15 (13:20) 10 (09:00) 0 0 0 0 0
26-11-2019 18.6 (15:20) 9.1 (00:00) 13.9 6.94 (02:40) 4.44 (06:00) 0 0 0 0 0
25-11-2019 20.2 (14:40) 8.5 (00:00) 14.4 10.28 (15:40) 4.44 (18:50) 0.8 0.8 0 0 0
24-11-2019 15.5 (15:50) 6.2 (00:00) 10.8 12.78 (11:40) 6.94 (10:30) 0 0 0 0 0
23-11-2019 12.8 (16:10) 7.3 (00:00) 10.1 17.78 (09:00) 11.39 (13:00) 0.8 0 0.8 0 0
22-11-2019 15.1 (21:10) 3.9 (00:00) 9.5 10.83 (22:30) 6.67 (18:30) 1 0 0.2 0.6 0.2
21-11-2019 14.2 (13:00) 3.6 (00:00) 8.9 4.72 (13:30) 3.33 (14:10) 0 0 0 0 0
20-11-2019 10.9 (15:20) 1.2 (07:10) 6 4.17 (14:00) 3.06 (14:00) 0.2 0 0 0 0.2
19-11-2019 13.3 (15:20) 4.1 (00:00) 8.7 11.39 (05:40) 6.94 (05:50) 0 0 0 0 0
18-11-2019 11.6 (14:50) 5.2 (00:00) 8.4 12.5 (11:40) 6.39 (09:40) 2 2 0 0 0
17-11-2019 13.8 (13:50) 6.5 (00:00) 10.2 13.33 (11:10) 8.33 (04:30) 2.4 0 0 2.4 0
16-11-2019 14.4 (14:20) 3.7 (00:00) 9 10.28 (22:00) 6.67 (17:40) 0 0 0 0 0
15-11-2019 14 (15:10) 4.3 (00:00) 9.2 12.78 (11:10) 8.33 (11:10) 0 0 0 0 0

Gráficas

Temp. máximas Temp. mínimas Temp. medias Precipitaciones Rachas de viento máximas Velocidades máximas media en intervalos de 10 minutos

Datos horarios

Fecha y hora oficial Temperatura (ºC) Velocidad del viento (km/h) Dirección del viento Racha (km/h) Dirección de racha Precipitación (mm) Presión (hPa) Tendencia (hPa) Humedad (%)
2019-12-14 23:00:00 11.3 12 Sudoeste 18 Oeste 0 -- -- 61
2019-12-14 22:00:00 11.9 18 Sudoeste 25 Sudoeste 0 -- -- 59
2019-12-14 21:00:00 12.3 14 Sudoeste 28 Sudoeste 0 -- -- 57
2019-12-14 20:00:00 12.3 15 Oeste 28 Oeste 0 -- -- 57
2019-12-14 19:00:00 11.8 8 Sudoeste 22 Oeste 0 -- -- 59
2019-12-14 18:00:00 12.9 14 Oeste 26 Oeste 0 -- -- 56
2019-12-14 17:00:00 14.2 15 Sudoeste 27 Oeste 0 -- -- 53
2019-12-14 16:00:00 15.1 23 Oeste 40 Oeste 0 -- -- 49
2019-12-14 15:00:00 16.1 25 Oeste 46 Oeste 0 -- -- 47
2019-12-14 14:00:00 17 25 Oeste 48 Oeste 0 -- -- 45
2019-12-14 13:00:00 16.7 28 Oeste 69 Oeste 0 -- -- 46
2019-12-14 12:00:00 15.6 28 Oeste 49 Oeste 0 -- -- 49
2019-12-14 11:00:00 14.3 30 Oeste 50 Oeste 0 -- -- 54
2019-12-14 10:00:00 12.5 12 Oeste 18 Oeste 0 -- -- 61
2019-12-14 09:00:00 10.9 10 Sudoeste 28 Oeste 0 -- -- 65
2019-12-14 08:00:00 10.8 13 Oeste 26 Oeste 0 -- -- 65
2019-12-14 07:00:00 11.5 19 Oeste 29 Oeste 0 -- -- 64
2019-12-14 06:00:00 11.7 15 Oeste 33 Oeste 0 -- -- 63
2019-12-14 05:00:00 12.9 24 Oeste 44 Oeste 0 -- -- 58
2019-12-14 04:00:00 13.2 21 Oeste 31 Oeste 0 -- -- 58
2019-12-14 03:00:00 13.4 18 Oeste 39 Oeste 0 -- -- 58
2019-12-14 02:00:00 14.2 26 Oeste 48 Oeste 0 -- -- 57
2019-12-14 01:00:00 14.6 32 Oeste 50 Oeste 0 -- -- 56
2019-12-14 00:00:00 14.9 29 Oeste 50 Oeste 0 -- -- 58
2019-12-13 23:00:00 15.3 34 Oeste 55 Oeste 0 -- -- 58
2019-12-13 22:00:00 15.7 32 Oeste 52 Oeste 0 -- -- 59
2019-12-13 21:00:00 15.7 29 Oeste 45 Oeste 0 -- -- 61
2019-12-13 20:00:00 16 23 Oeste 43 Noroeste 0 -- -- 61
2019-12-13 19:00:00 16.4 26 Oeste 51 Noroeste 0 -- -- 60
2019-12-13 18:00:00 17.1 34 Oeste 56 Oeste 0 -- -- 57
2019-12-13 17:00:00 18.1 26 Oeste 59 Oeste 0 -- -- 55
2019-12-13 16:00:00 19.1 33 Oeste 79 Oeste 0 -- -- 51
2019-12-13 15:00:00 19 45 Oeste 87 Oeste 0 -- -- 50
2019-12-13 14:00:00 18.7 52 Oeste 86 Oeste 0 -- -- 50
2019-12-13 13:00:00 19.2 49 Oeste 85 Noroeste 0 -- -- 48
2019-12-13 12:00:00 18.1 46 Oeste 78 Oeste 0 -- -- 51
2019-12-13 11:00:00 18.3 46 Oeste 75 Oeste 0 -- -- 51
2019-12-13 10:00:00 17.4 45 Oeste 81 Oeste 0 -- -- 54
2019-12-13 09:00:00 17 47 Oeste 78 Oeste 0 -- -- 54
2019-12-13 08:00:00 16.9 42 Oeste 78 Oeste 0 -- -- 56
2019-12-13 07:00:00 16.7 42 Oeste 77 Oeste 0 -- -- 58
2019-12-13 06:00:00 16.4 44 Oeste 67 Oeste 0 -- -- 60
2019-12-13 05:00:00 16 42 Oeste 67 Oeste 0 -- -- 62
2019-12-13 04:00:00 15.5 36 Oeste 57 Oeste 0 -- -- 63
2019-12-13 03:00:00 14.7 34 Oeste 58 Oeste 0 -- -- 65
2019-12-13 02:00:00 14.2 34 Oeste 54 Oeste 0 -- -- 66
2019-12-13 01:00:00 13.9 35 Oeste 55 Oeste 0 -- -- 68
2019-12-13 00:00:00 13.8 37 Oeste 72 Oeste 0 -- -- 67
2019-12-12 23:00:00 14 44 Oeste 66 Oeste 0 -- -- 62
2019-12-12 22:00:00 13.3 41 Oeste 60 Oeste 0 -- -- 62
2019-12-12 21:00:00 12.3 29 Oeste 44 Oeste 0 -- -- 63
2019-12-12 20:00:00 11.2 16 Oeste 43 Oeste 0 -- -- 67
2019-12-12 19:00:00 11.5 28 Oeste 54 Oeste 0 -- -- 62
2019-12-12 18:00:00 11.2 32 Oeste 60 Sudoeste 0 -- -- 59
2019-12-12 17:00:00 10.6 29 Sudoeste 49 Sudoeste 0 -- -- 63
2019-12-12 16:00:00 11.7 26 Oeste 51 Oeste 0 -- -- 58
2019-12-12 15:00:00 12.7 31 Oeste 56 Oeste 0 -- -- 53
2019-12-12 14:00:00 12.9 30 Oeste 48 Oeste 0 -- -- 51
2019-12-12 13:00:00 12.7 27 Oeste 61 Oeste 0 -- -- 52
2019-12-12 12:00:00 12 26 Oeste 47 Oeste 0 -- -- 54
2019-12-12 11:00:00 13.6 23 Oeste 42 Oeste 0 -- -- 50
2019-12-12 10:00:00 10.5 18 Oeste 39 Oeste 0 -- -- 59
2019-12-12 09:00:00 8.1 16 Oeste 31 Sudoeste 0 -- -- 67
2019-12-12 08:00:00 7.6 18 Oeste 39 Oeste 0 -- -- 66
2019-12-12 07:00:00 8.3 24 Oeste 41 Oeste 0 -- -- 64
2019-12-12 06:00:00 7.9 25 Oeste 41 Oeste 0 -- -- 65
2019-12-12 05:00:00 7.4 26 Oeste 37 Oeste 0 -- -- 67
2019-12-12 04:00:00 7.6 12 Sudoeste 34 Oeste 0 -- -- 65
2019-12-12 03:00:00 7.5 25 Oeste 37 Oeste 0 -- -- 66
2019-12-12 02:00:00 7.7 24 Oeste 46 Oeste 0 -- -- 63
2019-12-12 01:00:00 8.2 31 Oeste 46 Oeste 0 -- -- 61
2019-12-12 00:00:00 8.3 32 Oeste 47 Oeste 0 -- -- 61
2019-12-11 23:00:00 8.5 30 Oeste 48 Oeste 0 -- -- 60
2019-12-11 22:00:00 8.3 27 Oeste 46 Oeste 0 -- -- 63
2019-12-11 21:00:00 7.5 22 Oeste 30 Oeste 0 -- -- 70
2019-12-11 20:00:00 7.7 15 Oeste 25 Oeste 0 -- -- 77
2019-12-11 19:00:00 7.5 14 Oeste 29 Oeste 0 -- -- 78
2019-12-11 18:00:00 8.2 15 Oeste 26 Oeste 0 -- -- 74
2019-12-11 17:00:00 10.3 11 Noroeste 35 Noroeste 0 -- -- 65
2019-12-11 16:00:00 10.9 10 Noroeste 38 Oeste 0 -- -- 67
2019-12-11 15:00:00 11.2 18 Noroeste 43 Oeste 0 -- -- 69
2019-12-11 14:00:00 9.4 19 Oeste 32 Oeste 0 -- -- 74
2019-12-11 13:00:00 9.9 15 Oeste 40 Oeste 0 -- -- 74
2019-12-11 12:00:00 12.5 11 Noroeste 34 Oeste 0 -- -- 51
2019-12-11 11:00:00 13.6 20 Oeste 30 Oeste 0 -- -- 46
2019-12-11 10:00:00 9.2 6 Noroeste 14 Oeste 0 -- -- 59
2019-12-11 09:00:00 7.6 7 Oeste 16 Sudoeste 0 -- -- 60
2019-12-11 08:00:00 5.5 12 Sudoeste 17 Sudoeste 0 -- -- 67
2019-12-11 07:00:00 5.4 6 Sudoeste 12 Sudoeste 0 -- -- 68
2019-12-11 06:00:00 6.6 5 Sudoeste 10 Sudoeste 0 -- -- 64
2019-12-11 05:00:00 7.7 6 Sudoeste 12 Oeste 0 -- -- 60
2019-12-11 04:00:00 7.6 7 Oeste 11 Oeste 0 -- -- 60
2019-12-11 03:00:00 6.9 3 Sudoeste 8 Sudoeste 0 -- -- 64
2019-12-11 02:00:00 8.3 3 Oeste 7 Oeste 0 -- -- 58
2019-12-11 01:00:00 8.1 2 Oeste 5 Oeste 0 -- -- 58
2019-12-11 00:00:00 8.7 2 Sudoeste 8 Oeste 0 -- -- 55
2019-12-10 23:00:00 9.7 5 Noroeste 12 Oeste 0 -- -- 53
2019-12-10 22:00:00 10.4 9 Oeste 17 Sudoeste 0 -- -- 51
2019-12-10 21:00:00 11.8 13 Sudoeste 17 Sudoeste 0 -- -- 47
2019-12-10 20:00:00 12.2 13 Sudoeste 20 Sudoeste 0 -- -- 46
2019-12-10 19:00:00 9.9 12 Sudoeste 16 Sudoeste 0 -- -- 58
2019-12-10 18:00:00 11.6 4 Sudoeste 8 Sudoeste 0 -- -- 54
2019-12-10 17:00:00 14.2 3 Oeste 5 Noroeste 0 -- -- 49
2019-12-10 16:00:00 15.4 3 Noroeste 7 Este 0 -- -- 43
2019-12-10 15:00:00 16.2 3 Nordeste 10 Este 0 -- -- 45
2019-12-10 14:00:00 15.1 5 Este 10 Noroeste 0 -- -- 45
2019-12-10 13:00:00 14 3 Noroeste 12 Nordeste 0 -- -- 48
2019-12-10 12:00:00 12.3 3 Norte 19 Norte 0 -- -- 54
2019-12-10 11:00:00 10.9 6 Noroeste 29 Oeste 0 -- -- 56
2019-12-10 10:00:00 8.8 16 Oeste 30 Oeste 0 -- -- 62
2019-12-10 09:00:00 8.2 16 Oeste 41 Oeste 0 -- -- 64
2019-12-10 08:00:00 7.8 22 Oeste 44 Oeste 0 -- -- 67
2019-12-10 07:00:00 7.9 22 Oeste 34 Sudoeste 0 -- -- 67
2019-12-10 06:00:00 7.5 21 Oeste 32 Oeste 0 -- -- 69
2019-12-10 05:00:00 8.1 17 Oeste 33 Oeste 0 -- -- 67
2019-12-10 04:00:00 8.1 17 Oeste 38 Oeste 0 -- -- 68
2019-12-10 03:00:00 8.3 20 Oeste 47 Oeste 0 -- -- 67
2019-12-10 02:00:00 8.4 26 Oeste 49 Oeste 0 -- -- 69
2019-12-10 01:00:00 8.9 19 Oeste 47 Oeste 0 -- -- 65
2019-12-10 00:00:00 9.1 21 Oeste 47 Oeste 0 -- -- 64
2019-12-09 23:00:00 8.8 20 Oeste 39 Oeste 0 -- -- 71
2019-12-09 22:00:00 9.2 19 Oeste 38 Noroeste 0 -- -- 70
2019-12-09 21:00:00 9.7 13 Noroeste 37 Oeste 0 -- -- 69
2019-12-09 20:00:00 10.1 21 Oeste 40 Oeste 0 -- -- 68
2019-12-09 19:00:00 10.3 26 Oeste 41 Oeste 0 -- -- 70
2019-12-09 18:00:00 10.3 13 Oeste 32 Noroeste 0 -- -- 73
2019-12-09 17:00:00 11.2 10 Noroeste 42 Norte 0 -- -- 67
2019-12-09 16:00:00 13 14 Noroeste 51 Noroeste 0 -- -- 59
2019-12-09 15:00:00 14 18 Noroeste 50 Noroeste 0 -- -- 55
2019-12-09 14:00:00 14.1 15 Noroeste 48 Oeste 0 -- -- 55
2019-12-09 13:00:00 14.8 13 Noroeste 44 Oeste 0 -- -- 52
2019-12-09 12:00:00 14.4 16 Noroeste 44 Oeste 0 -- -- 52
2019-12-09 11:00:00 12.3 29 Oeste 50 Noroeste 0 -- -- 57
2019-12-09 10:00:00 10.6 31 Oeste 45 Oeste 0 -- -- 65
2019-12-09 09:00:00 7.8 19 Oeste 28 Oeste 0 -- -- 77
2019-12-09 08:00:00 6.3 4 Noroeste 18 Norte 0 -- -- 85
2019-12-09 07:00:00 6.4 4 Noroeste 12 Sudoeste 0 -- -- 85
2019-12-09 06:00:00 7 6 Sudoeste 23 Oeste 0 -- -- 83
2019-12-09 05:00:00 8.7 17 Oeste 26 Oeste 0 -- -- 79
2019-12-09 04:00:00 9.8 11 Oeste 25 Oeste 0 -- -- 83
2019-12-09 03:00:00 9.7 12 Oeste 28 Noroeste 0 -- -- 84
2019-12-09 02:00:00 10.1 19 Oeste 37 Oeste 0 -- -- 83
2019-12-09 01:00:00 10.5 15 Oeste 33 Oeste 0 -- -- 83
2019-12-09 00:00:00 11 18 Oeste 37 Oeste 0 -- -- 83
2019-12-08 23:00:00 11.4 16 Oeste 38 Oeste 0 -- -- 85
2019-12-08 22:00:00 11.7 18 Oeste 39 Noroeste 0.2 -- -- 90
2019-12-08 21:00:00 9.4 8 Oeste 12 Oeste 0 -- -- 96
2019-12-08 20:00:00 8.8 7 Sudoeste 10 Sudoeste 0.4 -- -- 94
2019-12-08 19:00:00 9 5 Oeste 10 Oeste 0.2 -- -- 92
2019-12-08 18:00:00 9.4 5 Oeste 10 Oeste 0 -- -- 84
2019-12-08 17:00:00 9.4 2 Nordeste 6 Nordeste 0 -- -- 87
2019-12-08 16:00:00 9.9 2 Norte 5 Sudoeste 0 -- -- 84
2019-12-08 15:00:00 9.1 2 Norte 6 Nordeste 0 -- -- 86
2019-12-08 14:00:00 7.2 3 Nordeste 7 Este 0 -- -- 94
2019-12-08 13:00:00 5.4 2 Nordeste 8 Norte 0 -- -- 97
2019-12-08 12:00:00 4.7 0 Calma 3 Nordeste 0 -- -- 99
2019-12-08 11:00:00 2.4 0 Calma 4 Norte 0 -- -- 99
2019-12-08 10:00:00 1.6 0 Calma 6 Norte 0 -- -- 98
2019-12-08 09:00:00 0.5 0 Calma 2 Este 0 -- -- 98
2019-12-08 08:00:00 0.2 0 Calma 3 Sudoeste 0 -- -- 98
2019-12-08 07:00:00 0.7 0 Calma 3 Noroeste 0 -- -- 98
2019-12-08 06:00:00 0.8 0 Calma 5 Nordeste 0 -- -- 98
2019-12-08 05:00:00 0.8 2 Sudeste 5 Nordeste 0 -- -- 98
2019-12-08 04:00:00 1.6 0 Calma 6 Nordeste 0 -- -- 98
2019-12-08 03:00:00 2.1 3 Nordeste 5 Nordeste 0 -- -- 98
2019-12-08 02:00:00 2.3 3 Este 7 Sudoeste 0 -- -- 97
2019-12-08 01:00:00 2.5 5 Sudoeste 6 Sudoeste 0 -- -- 97
2019-12-08 00:00:00 2.5 2 Nordeste 4 Norte 0 -- -- 96
2019-12-07 23:00:00 3.4 2 Norte 4 Nordeste 0 -- -- 95
2019-12-07 22:00:00 3.7 0 Calma 2 Oeste 0 -- -- 95
2019-12-07 21:00:00 4.6 3 Nordeste 5 Nordeste 0 -- -- 94
2019-12-07 20:00:00 6.7 3 Sudoeste 4 Sudoeste 0 -- -- 93
2019-12-07 19:00:00 8.2 2 Este 4 Este 0 -- -- 87
2019-12-07 18:00:00 9.3 0 Calma 4 Este 0 -- -- 87
2019-12-07 17:00:00 10.2 3 Este 6 Este 0 -- -- 83
2019-12-07 16:00:00 10.3 5 Nordeste 10 Nordeste 0 -- -- 81
2019-12-07 15:00:00 10.9 6 Este 12 Nordeste 0 -- -- 81
2019-12-07 14:00:00 11.2 5 Nordeste 9 Este 0 -- -- 79
2019-12-07 13:00:00 10.1 5 Nordeste 9 Nordeste 0 -- -- 82
2019-12-07 12:00:00 9.7 4 Nordeste 10 Nordeste 0 -- -- 82
2019-12-07 11:00:00 8.5 5 Nordeste 8 Nordeste 0 -- -- 85
2019-12-07 10:00:00 6.7 3 Sudoeste 8 Sudoeste 0 -- -- 93
2019-12-07 09:00:00 3.8 3 Sudoeste 6 Sudoeste 0 -- -- 97
2019-12-07 08:00:00 3.1 3 Oeste 7 Oeste 0 -- -- 96
2019-12-07 07:00:00 3.5 3 Sudoeste 5 Sudoeste 0 -- -- 96
2019-12-07 06:00:00 4.4 4 Sudoeste 6 Oeste 0 -- -- 97
2019-12-07 05:00:00 4.2 4 Sudoeste 10 Sudoeste 0 -- -- 97
2019-12-07 04:00:00 4.8 4 Sudoeste 8 Sudoeste 0 -- -- 96
2019-12-07 03:00:00 5 0 Calma 8 Sudoeste 0 -- -- 96
2019-12-07 02:00:00 5.7 5 Sudoeste 10 Sudoeste 0 -- -- 96
2019-12-07 01:00:00 6.6 5 Sudoeste 11 Oeste 0 -- -- 96
2019-12-07 00:00:00 6.5 8 Sudoeste 13 Sudoeste 0 -- -- 95
2019-12-06 23:00:00 6.8 7 Sudoeste 11 Sudoeste 0 -- -- 94
2019-12-06 22:00:00 7.5 4 Sudoeste 9 Sudoeste 0 -- -- 94
2019-12-06 21:00:00 7.6 5 Sudoeste 10 Sudoeste 0 -- -- 92
2019-12-06 20:00:00 8 4 Sudoeste 7 Sudoeste 0 -- -- 91
2019-12-06 19:00:00 9 3 Sudoeste 8 Sudoeste 0 -- -- 88
2019-12-06 18:00:00 10.6 2 Sudeste 3 Sur 0 -- -- 82
2019-12-06 17:00:00 12.3 0 Calma 12 Este 0 -- -- 76
2019-12-06 16:00:00 13.1 4 Nordeste 12 Este 0.2 -- -- 73
2019-12-06 15:00:00 13.2 6 Este 14 Nordeste 0 -- -- 72
2019-12-06 14:00:00 13.2 2 Norte 9 Noroeste 0 -- -- 76
2019-12-06 13:00:00 12.5 3 Nordeste 8 Nordeste 0 -- -- 80
2019-12-06 12:00:00 12.5 5 Nordeste 11 Nordeste 0 -- -- 80
2019-12-06 11:00:00 10.9 3 Oeste 5 Sudoeste 0 -- -- 91
2019-12-06 10:00:00 8.6 0 Calma 4 Este 0 -- -- 91
2019-12-06 09:00:00 8.2 6 Nordeste 13 Nordeste 0 -- -- 93
2019-12-06 08:00:00 8.7 3 Sur 6 Sudoeste 0 -- -- 92
2019-12-06 07:00:00 8.8 2 Sudoeste 4 Oeste 0 -- -- 93
2019-12-06 06:00:00 8.9 4 Este 10 Sudoeste 0 -- -- 93
2019-12-06 05:00:00 8.8 5 Oeste 8 Oeste 0 -- -- 94
2019-12-06 04:00:00 8.9 4 Oeste 12 Oeste 0 -- -- 93
2019-12-06 03:00:00 9 5 Sudoeste 7 Sudoeste 0 -- -- 90
2019-12-06 02:00:00 8.8 6 Oeste 16 Oeste 0 -- -- 94
2019-12-06 01:00:00 8.9 9 Sudoeste 13 Sudoeste 0 -- -- 93
2019-12-06 00:00:00 9.1 7 Sudoeste 10 Sudoeste 0.2 -- -- 90
2019-12-05 23:00:00 9.3 6 Sudoeste 13 Sudoeste 0 -- -- 89
2019-12-05 22:00:00 9.2 10 Sudoeste 14 Sudoeste 0 -- -- 92
2019-12-05 21:00:00 9.2 8 Sudoeste 13 Oeste 0 -- -- 93
2019-12-05 20:00:00 9.2 8 Sudoeste 14 Sudoeste 0 -- -- 91
2019-12-05 19:00:00 9 6 Sudoeste 16 Oeste 0 -- -- 94
2019-12-05 18:00:00 8.8 13 Oeste 17 Oeste 0 -- -- 96
2019-12-05 17:00:00 8.9 8 Sudoeste 12 Sudoeste 0.4 -- -- 96
2019-12-05 16:00:00 8.9 5 Oeste 16 Oeste 0.4 -- -- 94
2019-12-05 15:00:00 9.4 6 Noroeste 18 Noroeste 0 -- -- 93
2019-12-05 14:00:00 9.6 4 Noroeste 14 Noroeste 0 -- -- 95
2019-12-05 13:00:00 9.5 0 Calma 5 Oeste 0.2 -- -- 97
2019-12-05 12:00:00 8.9 0 Calma 8 Noroeste 0 -- -- 98
2019-12-05 11:00:00 8.3 3 Noroeste 8 Oeste 0.4 -- -- 98
2019-12-05 10:00:00 7.8 2 Noroeste 5 Oeste 0.6 -- -- 97
2019-12-05 09:00:00 7.6 2 Noroeste 6 Noroeste 0.2 -- -- 97
2019-12-05 08:00:00 7.5 2 Oeste 12 Norte 0 -- -- 97
2019-12-05 07:00:00 7.7 3 Noroeste 16 Norte 0 -- -- 96
2019-12-05 06:00:00 7.8 3 Noroeste 12 Noroeste 0 -- -- 96
2019-12-05 05:00:00 7.7 3 Noroeste 8 Oeste 0.2 -- -- 96
2019-12-05 04:00:00 7.6 2 Noroeste 9 Oeste 0 -- -- 96
2019-12-05 03:00:00 7.4 2 Sudoeste 7 Noroeste 0.8 -- -- 96
2019-12-05 02:00:00 7.7 3 Noroeste 9 Norte 0.8 -- -- 95
2019-12-05 01:00:00 7.9 4 Oeste 12 Oeste 0 -- -- 95
2019-12-05 00:00:00 8 3 Noroeste 10 Norte 0 -- -- 95
2019-12-04 23:00:00 8 3 Oeste 13 Oeste 0 -- -- 96
2019-12-04 22:00:00 8 5 Sudoeste 8 Oeste 0 -- -- 96
2019-12-04 21:00:00 7.8 5 Oeste 8 Oeste 0.4 -- -- 97
2019-12-04 20:00:00 7.6 2 Oeste 9 Oeste 0.8 -- -- 96
2019-12-04 19:00:00 7.1 6 Oeste 13 Noroeste 0.8 -- -- 96
2019-12-04 18:00:00 7.4 3 Noroeste 9 Noroeste 1.4 -- -- 96
2019-12-04 17:00:00 7.9 3 Oeste 6 Noroeste 1 -- -- 96
2019-12-04 16:00:00 7.7 3 Noroeste 9 Noroeste 0.4 -- -- 95
2019-12-04 15:00:00 7.3 2 Norte 5 Noroeste 0.4 -- -- 95
2019-12-04 14:00:00 6.9 2 Oeste 13 Noroeste 0.6 -- -- 95
2019-12-04 13:00:00 6.5 5 Oeste 11 Oeste 2 -- -- 94
2019-12-04 12:00:00 6.2 5 Oeste 10 Oeste 0.8 -- -- 91
2019-12-04 11:00:00 6 3 Noroeste 9 Noroeste 0 -- -- 86
2019-12-04 10:00:00 5.7 0 Calma 5 Noroeste 0 -- -- 86
2019-12-04 09:00:00 5.7 2 Oeste 5 Oeste 0 -- -- 86
2019-12-04 08:00:00 5.7 0 Calma 4 Norte 0 -- -- 87
2019-12-04 07:00:00 5.7 0 Calma 5 Noroeste 0 -- -- 87
2019-12-04 06:00:00 5.7 2 Noroeste 3 Noroeste 0 -- -- 88
2019-12-04 05:00:00 5.8 0 Calma 4 Oeste 0 -- -- 88
2019-12-04 04:00:00 5.9 0 Calma 6 Oeste 0 -- -- 87
2019-12-04 03:00:00 5.7 2 Oeste 10 Oeste 0 -- -- 87
2019-12-04 02:00:00 5.7 4 Oeste 9 Oeste 0 -- -- 86
2019-12-04 01:00:00 5.5 3 Sudoeste 6 Sudoeste 0 -- -- 87
2019-12-04 00:00:00 5.6 3 Oeste 9 Noroeste 0 -- -- 87
2019-12-03 23:00:00 5.4 0 Calma 9 Oeste 0.2 -- -- 89
2019-12-03 22:00:00 5.9 4 Sudoeste 8 Sudoeste 0 -- -- 80
2019-12-03 21:00:00 5.8 4 Sudoeste 9 Sudoeste 0 -- -- 80
2019-12-03 20:00:00 5.4 6 Sudoeste 8 Sudoeste 0 -- -- 81
2019-12-03 19:00:00 5.4 4 Sudoeste 6 Sudoeste 0 -- -- 79
2019-12-03 18:00:00 6.3 0 Calma 8 Oeste 0 -- -- 74
2019-12-03 17:00:00 7.6 2 Noroeste 9 Noroeste 0 -- -- 71
2019-12-03 16:00:00 8.5 3 Noroeste 11 Norte 0 -- -- 67
2019-12-03 15:00:00 8.9 3 Noroeste 11 Noroeste 0 -- -- 66
2019-12-03 14:00:00 8.3 3 Noroeste 13 Norte 0 -- -- 68
2019-12-03 13:00:00 8.2 2 Norte 21 Oeste 0 -- -- 67
2019-12-03 12:00:00 7.4 9 Oeste 19 Oeste 0 -- -- 67
2019-12-03 11:00:00 6.3 9 Oeste 15 Oeste 0 -- -- 70
2019-12-03 10:00:00 5.1 9 Sudoeste 14 Sudoeste 0 -- -- 77
2019-12-03 09:00:00 4 8 Sudoeste 15 Sudoeste 0 -- -- 79
2019-12-03 08:00:00 3.1 10 Sudoeste 16 Oeste 0 -- -- 81
2019-12-03 07:00:00 2.9 10 Sudoeste 17 Sudoeste 0 -- -- 82
2019-12-03 06:00:00 3.3 13 Sudoeste 19 Sudoeste 0 -- -- 82
2019-12-03 05:00:00 3.5 12 Sudoeste 18 Oeste 0 -- -- 82
2019-12-03 04:00:00 3.9 12 Sudoeste 18 Sudoeste 0 -- -- 79
2019-12-03 03:00:00 3.6 10 Sudoeste 17 Oeste 0 -- -- 80
2019-12-03 02:00:00 4.1 9 Sudoeste 22 Oeste 0 -- -- 76
2019-12-03 01:00:00 4.8 11 Oeste 22 Sudoeste 0 -- -- 75
2019-12-03 00:00:00 5.4 10 Sudoeste 20 Oeste 0 -- -- 76
2019-12-02 23:00:00 5.7 12 Oeste 21 Oeste 0 -- -- 76
2019-12-02 22:00:00 6.6 13 Oeste 23 Oeste 0 -- -- 74
2019-12-02 21:00:00 7.2 14 Oeste 23 Oeste 0 -- -- 76
2019-12-02 20:00:00 8 13 Oeste 26 Oeste 0 -- -- 74
2019-12-02 19:00:00 8.7 14 Oeste 23 Oeste 0 -- -- 74
2019-12-02 18:00:00 9.9 8 Noroeste 19 Oeste 0 -- -- 72
2019-12-02 17:00:00 12.1 4 Noroeste 14 Noroeste 0 -- -- 65
2019-12-02 16:00:00 14.3 4 Noroeste 10 Norte 0 -- -- 59
2019-12-02 15:00:00 13.6 3 Noroeste 12 Oeste 0 -- -- 61
2019-12-02 14:00:00 13.6 3 Norte 11 Noroeste 0 -- -- 64
2019-12-02 13:00:00 13.8 5 Noroeste 14 Noroeste 0 -- -- 66
2019-12-02 12:00:00 11.4 3 Norte 9 Norte 0 -- -- 72
2019-12-02 11:00:00 9.9 5 Oeste 12 Oeste 0 -- -- 75
2019-12-02 10:00:00 8.3 4 Oeste 10 Oeste 0 -- -- 81
2019-12-02 09:00:00 6.2 0 Calma 10 Oeste 0 -- -- 90
2019-12-02 08:00:00 5.9 6 Oeste 9 Sudoeste 0 -- -- 88
2019-12-02 07:00:00 5.5 5 Sudoeste 8 Sudoeste 0 -- -- 91
2019-12-02 06:00:00 5.1 0 Calma 12 Este 0 -- -- 90
2019-12-02 05:00:00 6.7 4 Oeste 12 Oeste 0 -- -- 85
2019-12-02 04:00:00 6.4 7 Oeste 13 Sudoeste 0 -- -- 87
2019-12-02 03:00:00 5.8 11 Sudoeste 14 Sudoeste 0 -- -- 88
2019-12-02 02:00:00 5.8 7 Sudoeste 12 Sudoeste 0 -- -- 87
2019-12-02 01:00:00 6.3 8 Sudoeste 12 Sudoeste 0 -- -- 87
2019-12-02 00:00:00 6.3 8 Sudoeste 13 Oeste 0 -- -- 87
2019-12-01 23:00:00 6.5 10 Sudoeste 15 Sudoeste 0 -- -- 87
2019-12-01 22:00:00 6.2 5 Sudoeste 12 Sudoeste 0 -- -- 88
2019-12-01 21:00:00 6.4 4 Sudoeste 9 Sudoeste 0 -- -- 86
2019-12-01 20:00:00 7.1 7 Sudoeste 10 Sudoeste 0 -- -- 84
2019-12-01 19:00:00 9 5 Sudoeste 7 Sudoeste 0 -- -- 76
2019-12-01 18:00:00 11 0 Calma 3 Noroeste 0 -- -- 68
2019-12-01 17:00:00 12.7 0 Calma 8 Nordeste 0 -- -- 63
2019-12-01 16:00:00 13.6 6 Nordeste 11 Nordeste 0 -- -- 60
2019-12-01 15:00:00 15.3 3 Norte 10 Norte 0 -- -- 53
2019-12-01 14:00:00 14.3 3 Nordeste 13 Este 0 -- -- 57
2019-12-01 13:00:00 13.5 5 Nordeste 13 Nordeste 0 -- -- 62
2019-12-01 12:00:00 13.5 3 Norte 9 Nordeste 0 -- -- 61
2019-12-01 11:00:00 12.3 3 Norte 6 Norte 0 -- -- 67
2019-12-01 10:00:00 9.9 2 Este 8 Nordeste 0 -- -- 72
2019-12-01 09:00:00 8 3 Oeste 8 Nordeste 0 -- -- 79
2019-12-01 08:00:00 6.8 0 Calma 15 Sudoeste 0 -- -- 83
2019-12-01 07:00:00 7.7 11 Sudoeste 15 Sudoeste 0 -- -- 82
2019-12-01 06:00:00 7.6 10 Sudoeste 14 Sudoeste 0 -- -- 87
2019-12-01 05:00:00 8.3 7 Sudoeste 14 Sur 0 -- -- 86
2019-12-01 04:00:00 8.6 7 Sudoeste 14 Sur 0 -- -- 85
2019-12-01 03:00:00 8.6 9 Sudoeste 19 Sudoeste 0.2 -- -- 88
2019-12-01 02:00:00 9.1 10 Sudoeste 25 Sudoeste 0.2 -- -- 84
2019-12-01 01:00:00 9.4 16 Oeste 32 Sudoeste 0.4 -- -- 84
2019-12-01 00:00:00 9.9 13 Sudoeste 24 Oeste 1.2 -- -- 92
2019-11-30 23:00:00 11.3 14 Oeste 24 Oeste 0 -- -- 80
2019-11-30 22:00:00 11.7 6 Noroeste 43 Noroeste 0 -- -- 80
2019-11-30 21:00:00 11.6 10 Sudoeste 14 Sudoeste 0 -- -- 80
2019-11-30 20:00:00 12.4 2 Sudeste 12 Nordeste 0 -- -- 80
2019-11-30 19:00:00 13.5 6 Nordeste 12 Sudeste 0 -- -- 76
2019-11-30 18:00:00 15.2 4 Nordeste 12 Nordeste 0 -- -- 70
2019-11-30 17:00:00 16.3 4 Nordeste 15 Nordeste 0 -- -- 67
2019-11-30 16:00:00 17.8 9 Nordeste 15 Este 0 -- -- 62
2019-11-30 15:00:00 18.3 8 Este 15 Este 0 -- -- 60
2019-11-30 14:00:00 16.7 9 Nordeste 15 Nordeste 0 -- -- 64
2019-11-30 13:00:00 15 10 Este 17 Nordeste 0 -- -- 69
2019-11-30 12:00:00 13.7 7 Nordeste 15 Nordeste 0 -- -- 73
2019-11-30 11:00:00 13 6 Nordeste 11 Nordeste 0 -- -- 74
2019-11-30 10:00:00 10.3 0 Calma 7 Sudoeste 0 -- -- 85
2019-11-30 09:00:00 7.4 2 Oeste 3 Noroeste 0 -- -- 93
2019-11-30 08:00:00 6.3 0 Calma 5 Nordeste 0 -- -- 94
2019-11-30 07:00:00 6.5 3 Oeste 6 Sudoeste 0 -- -- 94
2019-11-30 06:00:00 7.2 0 Calma 4 Oeste 0 -- -- 93
2019-11-30 05:00:00 7.7 0 Calma 6 Este 0 -- -- 91
2019-11-30 04:00:00 8.4 5 Este 10 Este 0 -- -- 90
2019-11-30 03:00:00 8.9 4 Sudoeste 13 Sudoeste 0 -- -- 89
2019-11-30 02:00:00 9.1 7 Sudoeste 11 Sudoeste 0 -- -- 88
2019-11-30 01:00:00 9.6 7 Sudoeste 9 Sudoeste 0 -- -- 87
2019-11-30 00:00:00 10.1 6 Sudoeste 10 Sudoeste 0 -- -- 85
2019-11-29 23:00:00 10 4 Sudoeste 13 Sudoeste 0 -- -- 86
2019-11-29 22:00:00 11.3 7 Sudoeste 10 Sudoeste 0 -- -- 81
2019-11-29 21:00:00 11.5 5 Sudoeste 9 Sudoeste 0 -- -- 79
2019-11-29 20:00:00 12.3 4 Sudoeste 8 Sudoeste 0 -- -- 75
2019-11-29 19:00:00 12.9 4 Sudoeste 10 Oeste 0 -- -- 73
2019-11-29 18:00:00 14 3 Sudoeste 8 Oeste 0 -- -- 69
2019-11-29 17:00:00 15.3 3 Noroeste 14 Noroeste 0 -- -- 65
2019-11-29 16:00:00 16.4 3 Noroeste 19 Noroeste 0 -- -- 62
2019-11-29 15:00:00 17.5 9 Noroeste 20 Noroeste 0 -- -- 58
2019-11-29 14:00:00 19.8 6 Noroeste 21 Oeste 0 -- -- 53
2019-11-29 13:00:00 17.9 7 Noroeste 19 Norte 0 -- -- 59
2019-11-29 12:00:00 16.4 7 Noroeste 21 Noroeste 0 -- -- 64
2019-11-29 11:00:00 16 7 Noroeste 21 Oeste 0 -- -- 70
2019-11-29 10:00:00 13.7 9 Oeste 21 Noroeste 0 -- -- 74
2019-11-29 09:00:00 12.6 3 Noroeste 15 Oeste 0 -- -- 75
2019-11-29 08:00:00 13.2 7 Noroeste 20 Oeste 0 -- -- 72
2019-11-29 07:00:00 14.3 14 Oeste 30 Oeste 0 -- -- 69
2019-11-29 06:00:00 14.8 13 Oeste 32 Oeste 0 -- -- 67
2019-11-29 05:00:00 14.8 18 Oeste 32 Oeste 0 -- -- 66
2019-11-29 04:00:00 14.8 17 Oeste 32 Oeste 0 -- -- 66
2019-11-29 03:00:00 14.8 18 Oeste 30 Oeste 0 -- -- 64
2019-11-29 02:00:00 15 15 Oeste 23 Oeste 0 -- -- 61
2019-11-29 01:00:00 15.5 12 Sudoeste 26 Oeste 0 -- -- 59
2019-11-29 00:00:00 15 15 Oeste 24 Oeste 0 -- -- 62
2019-11-28 23:00:00 14.8 17 Oeste 33 Sudoeste 0 -- -- 62
2019-11-28 22:00:00 14.6 16 Sudoeste 33 Oeste 0.2 -- -- 60
2019-11-28 21:00:00 15.7 24 Sudoeste 47 Oeste 0 -- -- 52
2019-11-28 20:00:00 15.7 32 Sudoeste 47 Oeste 0 -- -- 51
2019-11-28 19:00:00 15.7 27 Oeste 44 Oeste 0 -- -- 51
2019-11-28 18:00:00 16.3 22 Sudoeste 39 Sudoeste 0 -- -- 48
2019-11-28 17:00:00 16.8 14 Oeste 32 Oeste 0 -- -- 49
2019-11-28 16:00:00 17.6 16 Oeste 40 Oeste 0 -- -- 46
2019-11-28 15:00:00 18.8 27 Oeste 49 Oeste 0 -- -- 44
2019-11-28 14:00:00 20.1 23 Oeste 42 Oeste 0 -- -- 42
2019-11-28 13:00:00 19.8 27 Oeste 42 Oeste 0 -- -- 45
2019-11-28 12:00:00 19.1 21 Oeste 38 Oeste 0 -- -- 47
2019-11-28 11:00:00 18.5 4 Oeste 26 Oeste 0 -- -- 48
2019-11-28 10:00:00 15.8 14 Oeste 36 Oeste 0 -- -- 54
2019-11-28 09:00:00 13.7 20 Sudoeste 33 Oeste 0 -- -- 58
2019-11-28 08:00:00 13 21 Oeste 33 Oeste 0 -- -- 60
2019-11-28 07:00:00 12.4 15 Oeste 28 Oeste 0 -- -- 62
2019-11-28 06:00:00 12.6 19 Oeste 31 Oeste 0 -- -- 61
2019-11-28 05:00:00 10.5 13 Sudoeste 22 Oeste 0 -- -- 69
2019-11-28 04:00:00 10.9 10 Sudoeste 14 Oeste 0 -- -- 67
2019-11-28 03:00:00 11.9 5 Oeste 10 Oeste 0 -- -- 63
2019-11-28 02:00:00 12.6 6 Sudoeste 19 Oeste 0 -- -- 60
2019-11-28 01:00:00 13 14 Oeste 26 Oeste 0 -- -- 58
2019-11-28 00:00:00 13.8 13 Sudoeste 28 Sudoeste 0 -- -- 56
2019-11-27 23:00:00 14.2 17 Sudoeste 39 Oeste 0 -- -- 55
2019-11-27 22:00:00 14.6 23 Oeste 35 Sudoeste 0 -- -- 53
2019-11-27 21:00:00 14.3 7 Oeste 16 Sudoeste 0 -- -- 53
2019-11-27 20:00:00 14.9 10 Sudoeste 22 Oeste 0 -- -- 50
2019-11-27 19:00:00 14.9 13 Oeste 25 Sudoeste 0 -- -- 48
2019-11-27 18:00:00 14.8 8 Oeste 15 Oeste 0 -- -- 50
2019-11-27 17:00:00 16.5 5 Noroeste 28 Oeste 0 -- -- 47
2019-11-27 16:00:00 18.3 13 Noroeste 38 Oeste 0 -- -- 41
2019-11-27 15:00:00 19.9 19 Oeste 39 Oeste 0 -- -- 37
2019-11-27 14:00:00 19.1 28 Oeste 54 Oeste 0 -- -- 38
2019-11-27 06:00:00 -- -- -- -- -- -- -- -- --
2019-11-27 05:00:00 15.3 17 Oeste 28 Sudoeste 0 -- -- 62
2019-11-27 04:00:00 14.8 4 Noroeste 34 Oeste 0 -- -- 61
2019-11-27 03:00:00 16.4 21 Oeste 35 Oeste 0 -- -- 53
2019-11-27 02:00:00 16.9 17 Oeste 38 Oeste 0 -- -- 54
2019-11-27 01:00:00 11.6 4 Oeste 11 Norte 0 -- -- 82
2019-11-27 00:00:00 12 3 Sudoeste 13 Sudoeste 0 -- -- 81
2019-11-26 23:00:00 11.9 7 Nordeste 14 Nordeste 0 -- -- 81
2019-11-26 22:00:00 13.5 3 Norte 10 Nordeste 0 -- -- 75
2019-11-26 21:00:00 15.6 5 Sudeste 22 Sudeste 0 -- -- 66
2019-11-26 20:00:00 13.6 5 Nordeste 10 Nordeste 0 -- -- 75
2019-11-26 19:00:00 14.2 4 Sudoeste 10 Sudeste 0 -- -- 72
2019-11-26 18:00:00 15.6 4 Sudeste 13 Este 0 -- -- 66
2019-11-26 17:00:00 16.7 5 Nordeste 13 Este 0 -- -- 63
2019-11-26 16:00:00 17.2 9 Este 14 Este 0 -- -- 61
2019-11-26 15:00:00 18.4 6 Este 15 Este 0 -- -- 57
2019-11-26 14:00:00 17.6 11 Este 15 Este 0 -- -- 58
2019-11-26 13:00:00 18.1 7 Nordeste 14 Nordeste 0 -- -- 56
2019-11-26 12:00:00 17.1 7 Nordeste 15 Nordeste 0 -- -- 62
2019-11-26 11:00:00 16.6 8 Nordeste 13 Nordeste 0 -- -- 62
2019-11-26 10:00:00 13.7 3 Este 11 Nordeste 0 -- -- 68
2019-11-26 09:00:00 9.9 6 Sudoeste 13 Sudoeste 0 -- -- 82
2019-11-26 08:00:00 9.2 6 Sudoeste 18 Sudoeste 0 -- -- 83
2019-11-26 07:00:00 9.9 13 Sudoeste 21 Sudoeste 0 -- -- 81
2019-11-26 06:00:00 9.8 16 Sudoeste 21 Sudoeste 0 -- -- 82
2019-11-26 05:00:00 9.5 8 Sudoeste 16 Sudoeste 0 -- -- 82
2019-11-26 04:00:00 10.3 13 Sudoeste 19 Sudoeste 0 -- -- 78
2019-11-26 03:00:00 12.2 13 Sudoeste 25 Sudoeste 0 -- -- 71
2019-11-26 02:00:00 11.8 15 Sudoeste 22 Sudoeste 0 -- -- 72
2019-11-26 01:00:00 12.4 15 Sudoeste 22 Sudoeste 0 -- -- 70
2019-11-26 00:00:00 13.3 15 Sudoeste 19 Sudoeste 0 -- -- 66
2019-11-25 23:00:00 13.4 12 Sudoeste 19 Oeste 0 -- -- 65
2019-11-25 22:00:00 12.2 3 Oeste 9 Sudoeste 0 -- -- 73
2019-11-25 21:00:00 12.4 6 Sudoeste 12 Noroeste 0 -- -- 73
2019-11-25 20:00:00 13.3 2 Noroeste 18 Oeste 0 -- -- 70
2019-11-25 19:00:00 14.7 13 Oeste 23 Oeste 0 -- -- 63
2019-11-25 18:00:00 15 11 Oeste 25 Oeste 0 -- -- 63
2019-11-25 17:00:00 17 11 Oeste 29 Oeste 0 -- -- 57
2019-11-25 16:00:00 18.7 10 Noroeste 37 Noroeste 0 -- -- 54
2019-11-25 15:00:00 19.8 9 Noroeste 33 Noroeste 0 -- -- 50
2019-11-25 14:00:00 19.7 5 Noroeste 21 Norte 0 -- -- 52
2019-11-25 13:00:00 18 6 Norte 14 Norte 0 -- -- 62
2019-11-25 12:00:00 17.2 4 Norte 14 Norte 0 -- -- 62
2019-11-25 11:00:00 15.2 3 Norte 12 Nordeste 0 -- -- 65
2019-11-25 10:00:00 13.6 4 Noroeste 8 Oeste 0 -- -- 69
2019-11-25 09:00:00 11.3 0 Calma 9 Oeste 0 -- -- 76
2019-11-25 08:00:00 9.4 4 Noroeste 9 Sudoeste 0 -- -- 83
2019-11-25 07:00:00 9.4 6 Oeste 13 Oeste 0 -- -- 82
2019-11-25 06:00:00 10 4 Oeste 17 Sudoeste 0 -- -- 82
2019-11-25 05:00:00 8.8 6 Sudoeste 12 Sudoeste 0.4 -- -- 90
2019-11-25 04:00:00 8.6 7 Sudoeste 9 Sudoeste 0.2 -- -- 88
2019-11-25 03:00:00 8.8 2 Sur 8 Sudeste 0 -- -- 84
2019-11-25 02:00:00 8.7 2 Sudeste 22 Oeste 0.2 -- -- 82
2019-11-25 01:00:00 9.6 13 Oeste 18 Oeste 0 -- -- 73
2019-11-25 00:00:00 8.5 5 Sudoeste 17 Oeste 0 -- -- 66
2019-11-24 23:00:00 8.2 5 Sudoeste 13 Sudoeste 0 -- -- 66
2019-11-24 22:00:00 9.3 11 Sudoeste 20 Oeste 0 -- -- 61
2019-11-24 21:00:00 8.8 10 Sudoeste 19 Sudoeste 0 -- -- 63
2019-11-24 20:00:00 9.8 15 Oeste 32 Oeste 0 -- -- 60
2019-11-24 19:00:00 10.2 17 Oeste 30 Oeste 0 -- -- 60
2019-11-24 18:00:00 11 22 Oeste 34 Oeste 0 -- -- 57
2019-11-24 17:00:00 13.2 24 Oeste 39 Oeste 0 -- -- 52
2019-11-24 16:00:00 15.3 14 Noroeste 35 Oeste 0 -- -- 47
2019-11-24 15:00:00 15 14 Noroeste 40 Oeste 0 -- -- 47
2019-11-24 14:00:00 14.6 16 Noroeste 40 Noroeste 0 -- -- 49
2019-11-24 13:00:00 14.8 17 Noroeste 42 Oeste 0 -- -- 49
2019-11-24 12:00:00 14.1 16 Noroeste 46 Oeste 0 -- -- 51
2019-11-24 11:00:00 13.1 19 Oeste 37 Oeste 0 -- -- 54
2019-11-24 10:00:00 11 23 Oeste 34 Oeste 0 -- -- 58
2019-11-24 09:00:00 8.4 12 Oeste 34 Oeste 0 -- -- 66
2019-11-24 08:00:00 7.9 24 Oeste 34 Oeste 0 -- -- 67
2019-11-24 07:00:00 7.3 18 Sudoeste 29 Oeste 0 -- -- 70
2019-11-24 06:00:00 6.4 8 Noroeste 17 Oeste 0 -- -- 75
2019-11-24 05:00:00 7.2 10 Oeste 22 Oeste 0 -- -- 72
2019-11-24 04:00:00 7.1 10 Oeste 26 Oeste 0 -- -- 73
2019-11-24 03:00:00 7.9 12 Oeste 29 Oeste 0 -- -- 69
2019-11-24 02:00:00 7.9 16 Oeste 29 Oeste 0 -- -- 70
2019-11-24 01:00:00 8.1 20 Oeste 32 Oeste 0 -- -- 70
2019-11-24 00:00:00 8.6 20 Oeste 30 Oeste 0 -- -- 67
2019-11-23 23:00:00 8.6 11 Oeste 30 Noroeste 0 -- -- 68
2019-11-23 22:00:00 8.4 14 Oeste 26 Oeste 0 -- -- 68
2019-11-23 21:00:00 8.5 12 Oeste 27 Oeste 0 -- -- 66
2019-11-23 20:00:00 8.6 18 Oeste 31 Oeste 0 -- -- 66
2019-11-23 19:00:00 8.7 18 Oeste 32 Oeste 0 -- -- 69
2019-11-23 18:00:00 9.8 10 Noroeste 27 Noroeste 0 -- -- 66
2019-11-23 17:00:00 11.7 8 Noroeste 31 Norte 0 -- -- 60
2019-11-23 16:00:00 12.7 9 Noroeste 35 Oeste 0 -- -- 58
2019-11-23 15:00:00 12.2 19 Oeste 44 Oeste 0 -- -- 56
2019-11-23 14:00:00 11.4 32 Oeste 59 Oeste 0 -- -- 60
2019-11-23 13:00:00 10.7 41 Oeste 59 Oeste 0 -- -- 60
2019-11-23 12:00:00 10.6 31 Oeste 56 Oeste 0 -- -- 64
2019-11-23 11:00:00 10.7 30 Oeste 47 Oeste 0 -- -- 68
2019-11-23 10:00:00 8.3 19 Oeste 53 Oeste 0.6 -- -- 81
2019-11-23 09:00:00 8 40 Oeste 64 Oeste 0.2 -- -- 80
2019-11-23 08:00:00 9.6 24 Oeste 38 Oeste 0 -- -- 67
2019-11-23 07:00:00 9.9 24 Oeste 35 Oeste 0 -- -- 65
2019-11-23 06:00:00 10 18 Oeste 27 Oeste 0 -- -- 68
2019-11-23 05:00:00 9.5 9 Sudoeste 22 Oeste 0 -- -- 72
2019-11-23 04:00:00 9.7 22 Sudoeste 51 Oeste 0 -- -- 72
2019-11-23 03:00:00 9.9 2 Este 14 Oeste 0 -- -- 76
2019-11-23 02:00:00 9.8 6 Sudoeste 10 Sudoeste 0 -- -- 77
2019-11-23 01:00:00 10.4 3 Este 9 Sudoeste 0 -- -- 76
2019-11-23 00:00:00 11.4 8 Sudoeste 32 Oeste 0 -- -- 72
2019-11-22 23:00:00 11.9 9 Noroeste 39 Sudoeste 0 -- -- 76
2019-11-22 22:00:00 13.4 17 Sur 37 Sudeste 0 -- -- 71
2019-11-22 21:00:00 14.3 23 Sur 37 Sur 0 -- -- 66
2019-11-22 20:00:00 11.9 22 Este 33 Sudeste 0 -- -- 77
2019-11-22 19:00:00 12.6 20 Sudeste 33 Sudeste 0.2 -- -- 74
2019-11-22 18:00:00 12.4 22 Sudeste 32 Sudeste 0 -- -- 77
2019-11-22 17:00:00 12.5 21 Sudeste 34 Sudeste 0.6 -- -- 77
2019-11-22 16:00:00 14.2 18 Sudeste 28 Sudeste 0 -- -- 65
2019-11-22 15:00:00 14 21 Sudeste 33 Sudeste 0 -- -- 63
2019-11-22 14:00:00 11.1 16 Este 23 Sudeste 0 -- -- 78
2019-11-22 13:00:00 8.8 12 Nordeste 18 Nordeste 0 -- -- 88
2019-11-22 12:00:00 8 8 Nordeste 11 Nordeste 0 -- -- 94
2019-11-22 11:00:00 6.6 5 Este 9 Este 0.2 -- -- 94
2019-11-22 10:00:00 5.6 3 Norte 8 Este 0 -- -- 92
2019-11-22 09:00:00 4.6 2 Este 6 Este 0 -- -- 93
2019-11-22 08:00:00 4.5 3 Este 6 Este 0 -- -- 95
2019-11-22 07:00:00 4 2 Noroeste 9 Sur 0 -- -- 93
2019-11-22 06:00:00 4.6 3 Sur 7 Sudoeste 0 -- -- 94
2019-11-22 05:00:00 4.5 4 Sudoeste 10 Sudoeste 0 -- -- 94
2019-11-22 04:00:00 4.9 5 Sudoeste 10 Sudoeste 0 -- -- 92
2019-11-22 03:00:00 5.9 0 Calma 5 Nordeste 0 -- -- 91
2019-11-22 02:00:00 6.8 0 Calma 4 Norte 0 -- -- 88
2019-11-22 01:00:00 8.1 3 Este 12 Este 0 -- -- 83
2019-11-22 00:00:00 8 6 Sudoeste 9 Sudoeste 0 -- -- 86
2019-11-21 23:00:00 8.4 3 Sur 4 Oeste 0 -- -- 82
2019-11-21 22:00:00 8.7 3 Oeste 5 Oeste 0 -- -- 81
2019-11-21 21:00:00 9.2 0 Calma 4 Nordeste 0 -- -- 78
2019-11-21 20:00:00 9.9 4 Norte 8 Este 0 -- -- 75
2019-11-21 19:00:00 10.3 0 Calma 9 Sudeste 0 -- -- 73
2019-11-21 18:00:00 10.1 3 Sur 6 Sudeste 0 -- -- 78
2019-11-21 17:00:00 10.7 0 Calma 6 Nordeste 0 -- -- 76
2019-11-21 16:00:00 11.3 3 Este 11 Este 0 -- -- 71
2019-11-21 15:00:00 11.8 7 Nordeste 17 Nordeste 0 -- -- 66
2019-11-21 14:00:00 12.5 10 Nordeste 17 Este 0 -- -- 65
2019-11-21 13:00:00 14.2 3 Norte 13 Este 0 -- -- 66
2019-11-21 12:00:00 12.4 7 Este 11 Nordeste 0 -- -- 70
2019-11-21 11:00:00 11.1 6 Nordeste 9 Nordeste 0 -- -- 69
2019-11-21 10:00:00 8.9 3 Sudoeste 11 Sudoeste 0 -- -- 78
2019-11-21 09:00:00 4.7 6 Sudoeste 11 Sudoeste 0 -- -- 88
2019-11-21 08:00:00 -- -- -- -- -- -- -- -- --
2019-11-21 07:00:00 -- -- -- -- -- -- -- -- --
2019-11-21 06:00:00 -- -- -- -- -- -- -- -- --
2019-11-21 05:00:00 -- -- -- -- -- -- -- -- --
2019-11-21 04:00:00 -- -- -- -- -- -- -- -- --
2019-11-21 03:00:00 -- -- -- -- -- -- -- -- --
2019-11-21 02:00:00 -- -- -- -- -- -- -- -- --
2019-11-21 01:00:00 -- -- -- -- -- -- -- -- --
2019-11-21 00:00:00 -- -- -- -- -- -- -- -- --
2019-11-20 23:00:00 -- -- -- -- -- -- -- -- --
2019-11-20 22:00:00 -- -- -- -- -- -- -- -- --
2019-11-20 21:00:00 -- -- -- -- -- -- -- -- --
2019-11-20 20:00:00 -- -- -- -- -- -- -- -- --
2019-11-20 19:00:00 6.9 4 Sudoeste 6 Sudeste 0 -- -- 74
2019-11-20 18:00:00 8.2 0 Calma 11 Este 0 -- -- 68
2019-11-20 17:00:00 9.9 7 Este 15 Nordeste 0 -- -- 63
2019-11-20 16:00:00 10.7 9 Este 15 Este 0 -- -- 57
2019-11-20 15:00:00 10.6 6 Nordeste 14 Este 0 -- -- 61
2019-11-20 14:00:00 9.4 11 Este 15 Este 0 -- -- 68
2019-11-20 13:00:00 9.3 5 Nordeste 8 Nordeste 0 -- -- 67
2019-11-20 12:00:00 7.7 2 Norte 5 Norte 0 -- -- 73
2019-11-20 11:00:00 5.6 3 Nordeste 6 Nordeste 0 -- -- 81
2019-11-20 10:00:00 3.4 0 Calma 5 Nordeste 0 -- -- 90
2019-11-20 09:00:00 1.9 3 Nordeste 5 Nordeste 0 -- -- 91
2019-11-20 08:00:00 1.4 2 Este 6 Sudeste 0 -- -- 92
2019-11-20 07:00:00 1.3 2 Oeste 6 Sudoeste 0 -- -- 91
2019-11-20 06:00:00 1.4 2 Sudoeste 4 Sudoeste 0 -- -- 90
2019-11-20 05:00:00 2.1 2 Norte 3 Norte 0 -- -- 88
2019-11-20 04:00:00 2.7 4 Nordeste 8 Nordeste 0 -- -- 84
2019-11-20 03:00:00 3.6 2 Sur 8 Sudoeste 0 -- -- 79
2019-11-20 02:00:00 4.5 4 Sudoeste 12 Sudoeste 0 -- -- 75
2019-11-20 01:00:00 4 5 Sudoeste 13 Sudoeste 0 -- -- 77
2019-11-20 00:00:00 4.2 8 Sudoeste 16 Sudoeste 0 -- -- 76
2019-11-19 23:00:00 4.1 6 Sudoeste 16 Sudoeste 0 -- -- 77
2019-11-19 22:00:00 4.5 6 Sudoeste 12 Sudoeste 0 -- -- 77
2019-11-19 21:00:00 4.9 6 Sudoeste 14 Sudoeste 0 -- -- 76
2019-11-19 20:00:00 6 5 Sudoeste 10 Sudoeste 0 -- -- 73
2019-11-19 19:00:00 7.9 5 Sudeste 10 Sudeste 0 -- -- 68
2019-11-19 18:00:00 9.1 4 Sudeste 8 Noroeste 0 -- -- 61
2019-11-19 17:00:00 11.5 4 Norte 10 Norte 0 -- -- 55
2019-11-19 16:00:00 13 6 Noroeste 22 Norte 0 -- -- 50
2019-11-19 15:00:00 12.4 5 Noroeste 21 Norte 0 -- -- 51
2019-11-19 14:00:00 11.6 7 Noroeste 27 Noroeste 0 -- -- 53
2019-11-19 13:00:00 12.6 8 Noroeste 28 Norte 0 -- -- 51
2019-11-19 12:00:00 11.8 10 Noroeste 30 Noroeste 0 -- -- 54
2019-11-19 11:00:00 11.3 13 Oeste 25 Oeste 0 -- -- 56
2019-11-19 10:00:00 8.9 6 Oeste 12 Oeste 0 -- -- 64
2019-11-19 09:00:00 6.1 10 Sudoeste 19 Sudoeste 0 -- -- 68
2019-11-19 08:00:00 5.7 14 Sudoeste 27 Oeste 0 -- -- 69
2019-11-19 07:00:00 5.8 17 Oeste 29 Sudoeste 0 -- -- 68
2019-11-19 06:00:00 6.5 23 Oeste 41 Oeste 0 -- -- 63
2019-11-19 05:00:00 5.7 22 Oeste 37 Oeste 0 -- -- 68
2019-11-19 04:00:00 5.4 14 Oeste 28 Oeste 0 -- -- 69
2019-11-19 03:00:00 5.3 17 Oeste 27 Oeste 0 -- -- 70
2019-11-19 02:00:00 5.1 17 Oeste 31 Oeste 0 -- -- 73
2019-11-19 01:00:00 5.2 15 Sudoeste 21 Oeste 0 -- -- 73
2019-11-19 00:00:00 5.2 13 Oeste 28 Oeste 0 -- -- 75
2019-11-18 23:00:00 5.4 19 Oeste 30 Sudoeste 0 -- -- 73
2019-11-18 22:00:00 5.7 17 Oeste 30 Oeste 0 -- -- 70
2019-11-18 21:00:00 5.5 18 Oeste 33 Oeste 0 -- -- 72
2019-11-18 20:00:00 6.2 19 Oeste 36 Oeste 0 -- -- 68
2019-11-18 19:00:00 6.6 18 Oeste 31 Noroeste 0 -- -- 67
2019-11-18 18:00:00 7.5 17 Oeste 34 Oeste 0 -- -- 66
2019-11-18 17:00:00 9 10 Noroeste 36 Oeste 0 -- -- 62
2019-11-18 16:00:00 9.5 14 Noroeste 43 Noroeste 0 -- -- 59
2019-11-18 15:00:00 11.2 13 Noroeste 43 Noroeste 0 -- -- 58
2019-11-18 14:00:00 11 11 Noroeste 42 Oeste 0 -- -- 56
2019-11-18 13:00:00 10.2 12 Noroeste 36 Noroeste 0 -- -- 61
2019-11-18 12:00:00 10.6 16 Noroeste 45 Noroeste 0 -- -- 62
2019-11-18 11:00:00 10 14 Noroeste 44 Noroeste 0 -- -- 64
2019-11-18 10:00:00 8.9 17 Oeste 43 Oeste 0 -- -- 70
2019-11-18 09:00:00 7.3 20 Oeste 35 Oeste 0 -- -- 76
2019-11-18 08:00:00 5.7 18 Oeste 31 Oeste 0 -- -- 83
2019-11-18 07:00:00 6.2 19 Oeste 33 Oeste 0 -- -- 85
2019-11-18 06:00:00 6.4 15 Oeste 26 Oeste 0 -- -- 94
2019-11-18 05:00:00 6.2 10 Oeste 20 Noroeste 1 -- -- 95
2019-11-18 04:00:00 6.5 5 Noroeste 16 Noroeste 1 -- -- 93
2019-11-18 03:00:00 6.8 9 Sudoeste 15 Sudoeste 0 -- -- 85
2019-11-18 02:00:00 6.8 12 Sudoeste 16 Sudoeste 0 -- -- 91
2019-11-18 01:00:00 7.4 7 Sudoeste 12 Sudoeste 0 -- -- 91
2019-11-18 00:00:00 7.6 4 Sudoeste 7 Sudoeste 0 -- -- 92
2019-11-17 23:00:00 8 3 Sur 6 Sudeste 0 -- -- 91
2019-11-17 22:00:00 8.1 3 Sur 8 Nordeste 0 -- -- 91
2019-11-17 21:00:00 8.4 5 Nordeste 8 Este 0 -- -- 91
2019-11-17 20:00:00 8.3 2 Nordeste 6 Norte 0 -- -- 92
2019-11-17 19:00:00 8.7 0 Calma 6 Noroeste 0 -- -- 89
2019-11-17 18:00:00 8.8 3 Noroeste 18 Oeste 0.8 -- -- 89
2019-11-17 17:00:00 9.7 6 Noroeste 17 Noroeste 1.4 -- -- 88
2019-11-17 16:00:00 11.8 8 Noroeste 27 Oeste 0.2 -- -- 74
2019-11-17 15:00:00 13.6 6 Noroeste 33 Oeste 0 -- -- 55
2019-11-17 14:00:00 13.6 20 Oeste 36 Oeste 0 -- -- 51
2019-11-17 13:00:00 13.6 11 Noroeste 48 Oeste 0 -- -- 50
2019-11-17 12:00:00 12.9 27 Oeste 48 Oeste 0 -- -- 50
2019-11-17 11:00:00 12 30 Oeste 47 Oeste 0 -- -- 51
2019-11-17 10:00:00 9 17 Oeste 33 Oeste 0 -- -- 59
2019-11-17 09:00:00 9 11 Noroeste 40 Oeste 0 -- -- 60
2019-11-17 08:00:00 7 27 Oeste 39 Oeste 0 -- -- 63
2019-11-17 07:00:00 6.8 22 Oeste 42 Oeste 0 -- -- 63
2019-11-17 06:00:00 6.6 26 Oeste 40 Oeste 0 -- -- 63
2019-11-17 05:00:00 6.9 27 Oeste 46 Oeste 0 -- -- 61
2019-11-17 04:00:00 6.8 22 Oeste 40 Oeste 0 -- -- 61
2019-11-17 03:00:00 6.6 24 Oeste 36 Oeste 0 -- -- 62
2019-11-17 02:00:00 6.9 23 Oeste 35 Oeste 0 -- -- 61
2019-11-17 01:00:00 7.2 22 Oeste 31 Sudoeste 0 -- -- 61
2019-11-17 00:00:00 7.4 18 Sudoeste 27 Sudoeste 0 -- -- 62
2019-11-16 23:00:00 7.8 21 Oeste 34 Oeste 0 -- -- 61
2019-11-16 22:00:00 8.2 24 Oeste 37 Oeste 0 -- -- 60
2019-11-16 21:00:00 7.9 20 Oeste 31 Oeste 0 -- -- 60
2019-11-16 20:00:00 7.9 18 Oeste 32 Oeste 0 -- -- 60
2019-11-16 19:00:00 8 17 Oeste 31 Sudoeste 0 -- -- 61
2019-11-16 18:00:00 9.1 19 Oeste 36 Oeste 0 -- -- 56
2019-11-16 17:00:00 10 20 Oeste 31 Oeste 0 -- -- 54
2019-11-16 16:00:00 11.1 18 Oeste 35 Oeste 0 -- -- 50
2019-11-16 15:00:00 13.6 13 Oeste 28 Oeste 0 -- -- 45
2019-11-16 14:00:00 13.3 8 Noroeste 26 Oeste 0 -- -- 45
2019-11-16 13:00:00 12.6 9 Noroeste 27 Oeste 0 -- -- 45
2019-11-16 12:00:00 11.3 9 Noroeste 26 Oeste 0 -- -- 50
2019-11-16 11:00:00 11 6 Oeste 22 Oeste 0 -- -- 50
2019-11-16 10:00:00 8.6 12 Oeste 23 Oeste 0 -- -- 57
2019-11-16 09:00:00 5.6 11 Sudoeste 18 Oeste 0 -- -- 67
2019-11-16 08:00:00 4 11 Sudoeste 20 Oeste 0 -- -- 74
2019-11-16 07:00:00 3.8 13 Oeste 23 Oeste 0 -- -- 77
2019-11-16 06:00:00 4 15 Oeste 29 Oeste 0 -- -- 77
2019-11-16 05:00:00 4.1 14 Oeste 24 Oeste 0 -- -- 79
2019-11-16 04:00:00 4.3 13 Oeste 23 Oeste 0 -- -- 79
2019-11-16 03:00:00 4.7 12 Oeste 28 Oeste 0 -- -- 78
2019-11-16 02:00:00 4.8 11 Sudoeste 33 Oeste 0 -- -- 79
2019-11-16 01:00:00 5.1 16 Oeste 28 Oeste 0 -- -- 78
2019-11-16 00:00:00 5.6 17 Oeste 29 Oeste 0 -- -- 79
2019-11-15 23:00:00 6 13 Oeste 30 Oeste 0 -- -- 77
2019-11-15 22:00:00 6.3 13 Oeste 25 Oeste 0 -- -- 75
2019-11-15 21:00:00 5.5 12 Oeste 18 Sudoeste 0 -- -- 78
2019-11-15 20:00:00 6 9 Oeste 19 Noroeste 0 -- -- 75
2019-11-15 19:00:00 7 4 Noroeste 19 Noroeste 0 -- -- 74
2019-11-15 18:00:00 8.2 4 Noroeste 21 Noroeste 0 -- -- 71
2019-11-15 17:00:00 9.8 7 Noroeste 33 Noroeste 0 -- -- 64
2019-11-15 16:00:00 9.6 8 Noroeste 40 Noroeste 0 -- -- 66
2019-11-15 15:00:00 13.9 18 Oeste 44 Oeste 0 -- -- 48
2019-11-15 14:00:00 12.6 17 Noroeste 37 Noroeste 0 -- -- 50
2019-11-15 13:00:00 12.1 14 Oeste 35 Oeste 0 -- -- 54
2019-11-15 12:00:00 11.6 13 Oeste 46 Oeste 0 -- -- 55
2019-11-15 11:00:00 10.7 22 Oeste 44 Oeste 0 -- -- 57
2019-11-15 10:00:00 9.6 19 Oeste 31 Oeste 0 -- -- 59
2019-11-15 09:00:00 6.7 15 Sudoeste 30 Sudoeste 0 -- -- 65
2019-11-15 08:00:00 4.7 18 Oeste 28 Oeste 0 -- -- 70
2019-11-15 07:00:00 4.3 11 Sudoeste 16 Sudoeste 0 -- -- 78
2019-11-15 06:00:00 5.3 12 Oeste 20 Oeste 0 -- -- 76
2019-11-15 05:00:00 6 15 Oeste 25 Oeste 0 -- -- 74
2019-11-15 04:00:00 6.3 13 Oeste 24 Oeste 0 -- -- 72
2019-11-15 03:00:00 6 12 Oeste 24 Oeste 0 -- -- 76
2019-11-15 02:00:00 6.4 14 Oeste 32 Oeste 0 -- -- 76
2019-11-15 01:00:00 6.3 19 Oeste 30 Oeste 0 -- -- 76
2019-11-15 00:00:00 5.8 18 Oeste 29 Oeste 0 -- -- 78